Terminal Aerodrome Forecast
Issued by NWS

Home | Current Version | Previous Version | Graphics & Text | Print | Product List | Glossary On
Versions: 1 2 3 4 5 6 7 8 9 10 11 12 13 14 15 16
758
FTUS43 KTOP 170520
TAFMHK
TAF
KMHK 170520Z 1706/1806 09005KT P6SM FEW250
     FM171000 11007KT P6SM SCT200
     FM171500 12012G21KT P6SM BKN040
     FM172100 15013G23KT P6SM SCT040=

USA.gov is the U.S. government's official web portal to all federal, state and local government web resources and services.